createdAt,value
2023-03-04T00:00:49.416Z,99426.59
2023-03-04T00:03:18.547Z,99416.83
2023-03-04T00:05:47.569Z,99418.77
2023-03-04T00:08:16.762Z,99417.70
2023-03-04T00:10:46.162Z,99413.20
2023-03-04T00:13:17.199Z,99411.13
2023-03-04T00:15:45.592Z,99409.48
2023-03-04T00:18:16.836Z,99410.64
2023-03-04T00:20:46.867Z,99412.27
2023-03-04T00:23:17.886Z,99414.77
2023-03-04T00:25:48.015Z,99412.05
2023-03-04T00:28:19.453Z,99406.95
2023-03-04T00:30:50.849Z,99406.99
2023-03-04T00:33:51.544Z,99407.23
2023-03-04T00:36:20.752Z,99401.93
2023-03-04T00:38:50.984Z,99400.51
2023-03-04T00:41:21.301Z,99396.85
2023-03-04T00:43:49.684Z,99394.75
2023-03-04T00:46:21.177Z,99386.77
2023-03-04T00:48:49.973Z,99381.74
2023-03-04T00:51:19.055Z,99378.11
2023-03-04T00:56:52.526Z,99370.61
2023-03-04T00:59:24.840Z,99371.09
2023-03-04T01:01:57.547Z,99362.55
2023-03-04T01:04:27.393Z,99360.98
2023-03-04T01:06:56.872Z,99353.64
2023-03-04T01:09:29.041Z,99350.71
2023-03-04T01:11:59.883Z,99343.95
2023-03-04T01:14:28.866Z,99344.31
2023-03-04T01:16:58.270Z,99337.54
2023-03-04T01:19:27.595Z,99336.84
2023-03-04T01:21:57.806Z,99331.11
2023-03-04T01:24:26.295Z,99331.21
2023-03-04T01:26:57.569Z,99328.88
2023-03-04T01:29:30.445Z,99335.41
2023-03-04T01:32:06.137Z,99333.86
2023-03-04T01:34:34.831Z,99336.30
2023-03-04T01:37:05.908Z,99333.28
2023-03-04T01:39:35.034Z,99329.20
2023-03-04T01:42:05.124Z,99327.52
2023-03-04T01:44:34.039Z,99324.98
2023-03-04T01:47:03.134Z,99313.02
2023-03-04T01:49:34.136Z,99312.91
2023-03-04T01:52:04.698Z,99314.33
2023-03-04T01:54:34.921Z,99310.44
2023-03-04T01:57:11.061Z,99311.13
2023-03-04T01:59:41.596Z,99307.31
2023-03-04T02:02:13.032Z,99312.33
2023-03-04T02:04:47.964Z,99308.56
2023-03-04T02:07:19.917Z,99307.80
2023-03-04T02:09:50.468Z,99307.13
2023-03-04T02:12:19.048Z,99301.20
2023-03-04T02:14:47.935Z,99304.43
2023-03-04T02:17:26.131Z,99302.46
2023-03-04T02:20:20.863Z,99300.55
2023-03-04T02:23:25.924Z,99299.48
2023-03-04T02:26:19.795Z,99297.66
2023-03-04T02:28:52.882Z,99290.30
2023-03-04T02:31:28.339Z,99290.55
2023-03-04T02:33:59.879Z,99284.33
2023-03-04T02:36:35.230Z,99262.24
2023-03-04T02:39:32.124Z,99244.33
2023-03-04T02:42:45.783Z,99250.69
2023-03-04T02:45:45.347Z,99252.39
2023-03-04T02:48:16.153Z,99252.21
2023-03-04T02:50:47.561Z,99252.39
2023-03-04T02:53:17.733Z,99251.92
2023-03-04T02:55:48.527Z,99251.19
2023-03-04T02:58:19.086Z,99248.40
2023-03-04T03:00:57.082Z,99246.64
2023-03-04T03:03:30.687Z,99244.61
2023-03-04T03:06:04.434Z,99241.97
2023-03-04T03:08:39.196Z,99236.45
2023-03-04T03:11:13.115Z,99233.80
2023-03-04T03:13:50.904Z,99225.61
2023-03-04T03:16:21.373Z,99217.25
2023-03-04T03:18:51.959Z,99217.83
2023-03-04T03:21:22.149Z,99215.32
2023-03-04T03:23:56.878Z,99215.61
2023-03-04T03:26:25.576Z,99218.99
2023-03-04T03:28:56.510Z,99216.34
2023-03-04T03:34:33.162Z,99208.46
2023-03-04T03:37:01.790Z,99208.08
2023-03-04T03:39:33.648Z,99208.98
2023-03-04T03:42:02.650Z,99202.16
2023-03-04T03:44:31.227Z,99195.89
2023-03-04T03:46:59.811Z,99196.61
2023-03-04T03:49:33.423Z,99193.05
2023-03-04T03:52:09.236Z,99183.50
2023-03-04T03:54:38.374Z,99175.24
2023-03-04T03:57:08.369Z,99171.13
2023-03-04T03:59:37.061Z,99167.84
2023-03-04T04:02:10.991Z,99166.34
2023-03-04T04:05:16.003Z,99158.23
2023-03-04T04:07:45.495Z,99152.69
2023-03-04T04:11:15.936Z,99156.54
2023-03-04T04:13:45.027Z,99154.23
2023-03-04T04:16:14.259Z,99147.03
2023-03-04T04:18:43.014Z,99141.20
2023-03-04T04:21:17.847Z,99133.69
2023-03-04T04:23:47.295Z,99121.65
2023-03-04T04:26:19.438Z,99116.71
2023-03-04T04:28:47.720Z,99106.25
2023-03-04T04:31:18.937Z,99104.52
2023-03-04T04:33:49.480Z,99108.87
2023-03-04T04:36:29.400Z,99106.27
2023-03-04T04:38:57.851Z,99107.00
2023-03-04T04:41:38.952Z,99111.13
2023-03-04T04:44:19.947Z,99105.52
2023-03-04T04:46:49.479Z,99101.26
2023-03-04T04:49:20.731Z,99094.34
2023-03-04T04:51:50.217Z,99089.41
2023-03-04T04:54:18.797Z,99080.11
2023-03-04T04:56:52.021Z,99076.73
2023-03-04T04:59:29.671Z,99075.11
2023-03-04T05:01:58.831Z,99068.06
2023-03-04T05:04:27.338Z,99056.63
2023-03-04T05:06:57.776Z,99051.95
2023-03-04T05:09:28.181Z,99052.84
2023-03-04T05:11:56.785Z,99050.35
2023-03-04T05:14:27.215Z,99037.89
2023-03-04T05:16:55.899Z,99027.49
2023-03-04T05:19:24.995Z,99018.58
2023-03-04T05:21:53.682Z,99024.77
2023-03-04T05:24:23.899Z,99028.17
2023-03-04T05:26:53.510Z,99023.77
2023-03-04T05:29:24.042Z,99022.79
2023-03-04T05:31:52.279Z,99027.20
2023-03-04T05:34:21.382Z,99029.98
2023-03-04T05:36:51.230Z,99033.48
2023-03-04T05:39:34.053Z,99035.30
2023-03-04T05:42:02.376Z,99024.70
2023-03-04T05:44:32.216Z,99018.77
2023-03-04T05:47:03.345Z,99011.81
2023-03-04T05:49:33.154Z,98998.61
2023-03-04T05:52:03.075Z,98990.98
2023-03-04T05:54:32.783Z,98991.64
2023-03-04T05:57:02.701Z,98982.41
2023-03-04T05:59:31.180Z,98982.70
2023-03-04T06:02:01.731Z,98993.12
2023-03-04T06:04:31.320Z,98985.35
2023-03-04T06:07:01.234Z,98981.71
2023-03-04T06:09:30.124Z,98981.03
2023-03-04T06:11:59.426Z,98980.59
2023-03-04T06:14:36.136Z,98970.60
2023-03-04T06:17:06.665Z,98974.51
2023-03-04T06:19:35.668Z,98980.14
2023-03-04T06:22:17.626Z,98980.80
2023-03-04T06:24:47.271Z,98974.88
2023-03-04T06:27:21.681Z,98974.61
2023-03-04T06:29:54.153Z,98967.15
2023-03-04T06:32:27.355Z,98955.56
2023-03-04T06:34:56.645Z,98952.02
2023-03-04T06:37:25.842Z,98951.71
2023-03-04T06:39:56.360Z,98949.67
2023-03-04T06:42:25.592Z,98937.45
2023-03-04T06:44:54.616Z,98930.21
2023-03-04T06:47:23.353Z,98934.29
2023-03-04T06:49:54.353Z,98930.66
2023-03-04T06:52:25.227Z,98921.70
2023-03-04T06:54:53.920Z,98914.67
2023-03-04T06:57:25.162Z,98909.20
2023-03-04T06:59:57.636Z,98908.27
2023-03-04T07:02:31.230Z,98901.14
2023-03-04T07:05:00.430Z,98900.48
2023-03-04T07:07:29.526Z,98891.48
2023-03-04T07:09:59.648Z,98897.61
2023-03-04T07:12:32.633Z,98885.91
2023-03-04T07:15:07.745Z,98889.14
2023-03-04T07:17:47.007Z,98881.52
2023-03-04T07:20:15.800Z,98882.64
2023-03-04T07:23:19.820Z,98884.69
2023-03-04T07:25:51.500Z,98888.28
2023-03-04T07:28:20.363Z,98886.91
2023-03-04T07:30:53.473Z,98886.29
2023-03-04T07:33:42.856Z,98878.10
2023-03-04T07:36:15.320Z,98885.52
2023-03-04T07:38:45.331Z,98877.13
2023-03-04T07:41:20.892Z,98884.35
2023-03-04T07:44:07.289Z,98889.19
2023-03-04T07:46:38.322Z,98878.14
2023-03-04T07:49:12.026Z,98879.17
2023-03-04T07:51:41.331Z,98877.40
2023-03-04T07:54:43.439Z,98877.77
2023-03-04T07:57:33.402Z,98872.57
2023-03-04T08:00:03.076Z,98880.27
2023-03-04T08:02:41.127Z,98869.89
2023-03-04T08:05:13.073Z,98859.30
2023-03-04T08:08:03.127Z,98864.13
2023-03-04T08:11:09.212Z,98857.08
2023-03-04T08:13:42.407Z,98866.67
2023-03-04T08:16:19.654Z,98859.58
2023-03-04T08:18:52.800Z,98863.16
2023-03-04T08:21:40.392Z,98863.80
2023-03-04T08:24:12.391Z,98864.15
2023-03-04T08:26:46.365Z,98859.77
2023-03-04T08:29:23.420Z,98860.27
2023-03-04T08:32:20.174Z,98866.17
2023-03-04T08:38:59.037Z,98856.58
2023-03-04T08:41:36.625Z,98863.09
2023-03-04T08:44:12.861Z,98863.80
2023-03-04T08:46:45.611Z,98860.27
2023-03-04T08:49:31.029Z,98867.08
2023-03-04T08:52:02.052Z,98857.77
2023-03-04T08:54:35.794Z,98858.39
2023-03-04T08:57:36.922Z,98863.38
2023-03-04T09:00:06.281Z,98864.14
2023-03-04T09:02:57.448Z,98858.99
2023-03-04T09:05:31.696Z,98858.48
2023-03-04T09:08:01.702Z,98856.47
2023-03-04T09:10:31.033Z,98862.08
2023-03-04T09:17:38.677Z,98864.58
2023-03-04T09:20:10.505Z,98861.48
2023-03-04T09:22:44.894Z,98863.59
2023-03-04T09:25:16.806Z,98859.87
2023-03-04T09:31:01.283Z,98858.63
2023-03-04T09:33:31.849Z,98865.81
2023-03-04T09:36:01.654Z,98852.75
2023-03-04T09:38:31.582Z,98861.23
2023-03-04T09:41:01.094Z,98846.95
2023-03-04T09:43:34.145Z,98850.92
2023-03-04T09:46:18.897Z,98852.02
2023-03-04T09:48:52.906Z,98845.55
2023-03-04T09:51:42.152Z,98846.11
2023-03-04T09:55:05.262Z,98839.55
2023-03-04T09:57:43.079Z,98842.74
2023-03-04T10:00:25.975Z,98831.35
2023-03-04T10:03:10.321Z,98830.52
2023-03-04T10:05:58.037Z,98836.66
2023-03-04T10:13:39.487Z,98832.27
2023-03-04T10:16:29.728Z,98834.25
2023-03-04T10:19:10.305Z,98826.11
2023-03-04T10:21:49.456Z,98827.19
2023-03-04T10:24:27.369Z,98823.23
2023-03-04T10:27:10.930Z,98818.93
2023-03-04T10:30:32.395Z,98790.94
2023-03-04T10:33:01.860Z,98788.30
2023-03-04T10:36:07.427Z,98782.47
2023-03-04T10:38:40.581Z,98776.04
2023-03-04T10:41:17.872Z,98764.79
2023-03-04T10:44:18.450Z,98763.44
2023-03-04T10:46:50.309Z,98751.31
2023-03-04T10:49:19.719Z,98748.51
2023-03-04T10:52:33.455Z,98735.81
2023-03-04T10:55:26.435Z,98738.59
2023-03-04T10:58:08.454Z,98737.89
2023-03-04T11:00:37.553Z,98740.38
2023-03-04T11:03:30.611Z,98738.59
2023-03-04T11:06:06.390Z,98729.08
2023-03-04T11:08:35.333Z,98732.55
2023-03-04T11:11:52.585Z,98732.90
2023-03-04T11:14:38.382Z,98732.81
2023-03-04T11:17:21.159Z,98731.13
2023-03-04T11:20:35.925Z,98723.84
2023-03-04T11:23:52.364Z,98720.38
2023-03-04T11:26:39.943Z,98707.35
2023-03-04T11:29:19.621Z,98714.42
2023-03-04T11:31:59.767Z,98717.98
2023-03-04T11:35:04.142Z,98706.50
2023-03-04T11:37:53.783Z,98706.04
2023-03-04T11:40:55.603Z,98710.98
2023-03-04T11:43:41.537Z,98706.95
2023-03-04T11:46:55.483Z,98700.38
2023-03-04T11:49:58.323Z,98700.29
2023-03-04T11:52:38.661Z,98698.08
2023-03-04T11:55:44.268Z,98700.61
2023-03-04T11:58:32.570Z,98689.37
2023-03-04T12:01:36.989Z,98695.38
2023-03-04T12:04:21.564Z,98690.44
2023-03-04T12:07:09.896Z,98698.63
2023-03-04T12:10:08.935Z,98710.55
2023-03-04T12:13:11.538Z,98696.64
2023-03-04T12:16:07.666Z,98697.61
2023-03-04T12:19:27.918Z,98706.30
2023-03-04T12:22:27.743Z,98707.23
2023-03-04T12:24:58.006Z,98703.67
2023-03-04T12:27:53.825Z,98706.48
2023-03-04T12:30:25.580Z,98704.84
2023-03-04T12:33:10.767Z,98707.92
2023-03-04T12:35:46.012Z,98719.67
2023-03-04T12:38:18.315Z,98716.90
2023-03-04T12:41:19.737Z,98718.77
2023-03-04T12:43:57.892Z,98716.86
2023-03-04T12:47:11.849Z,98720.60
2023-03-04T12:50:05.216Z,98714.42
2023-03-04T12:52:43.671Z,98710.84
2023-03-04T12:55:15.956Z,98714.49
2023-03-04T12:57:45.417Z,98716.59
2023-03-04T13:00:32.819Z,98721.70
2023-03-04T13:03:31.066Z,98713.20
2023-03-04T13:06:14.063Z,98715.64
2023-03-04T13:09:18.877Z,98711.17
2023-03-04T13:12:51.052Z,98718.45
2023-03-04T13:15:23.088Z,98721.21
2023-03-04T13:17:54.645Z,98716.64
2023-03-04T13:20:38.529Z,98709.52
2023-03-04T13:23:38.900Z,98707.39
2023-03-04T13:26:27.052Z,98691.16
2023-03-04T13:29:14.729Z,98695.55
2023-03-04T13:32:05.641Z,98688.48
2023-03-04T13:34:54.801Z,98686.84
2023-03-04T13:37:32.956Z,98679.40
2023-03-04T13:40:20.922Z,98671.37
2023-03-04T13:42:49.807Z,98662.41
2023-03-04T13:45:47.881Z,98668.64
2023-03-04T13:48:52.793Z,98663.39
2023-03-04T13:51:44.111Z,98652.04
2023-03-04T13:54:24.186Z,98652.34
2023-03-04T13:57:02.400Z,98656.44
2023-03-04T14:02:44.723Z,98668.05
2023-03-04T14:05:13.307Z,98672.55
2023-03-04T14:07:47.462Z,98671.89
2023-03-04T14:11:17.658Z,98671.41
2023-03-04T14:13:46.342Z,98673.06
2023-03-04T14:16:20.686Z,98664.33
2023-03-04T14:19:05.867Z,98665.56
2023-03-04T14:21:37.107Z,98660.67
2023-03-04T14:24:13.424Z,98668.98
2023-03-04T14:26:42.414Z,98664.63
2023-03-04T14:29:26.975Z,98661.56
2023-03-04T14:31:55.345Z,98661.02
2023-03-04T14:34:59.809Z,98658.69
2023-03-04T14:37:34.876Z,98658.72
2023-03-04T14:40:07.604Z,98663.95
2023-03-04T14:42:40.395Z,98657.32
2023-03-04T14:45:13.719Z,98656.25
2023-03-04T14:47:48.845Z,98650.69
2023-03-04T14:50:34.071Z,98651.60
2023-03-04T14:53:08.878Z,98640.59
2023-03-04T14:56:17.600Z,98646.74
2023-03-04T15:01:45.092Z,98643.64
2023-03-04T15:04:14.458Z,98642.41
2023-03-04T15:06:53.623Z,98641.57
2023-03-04T15:09:26.633Z,98642.14
2023-03-04T15:12:06.791Z,98636.08
2023-03-04T15:14:46.697Z,98637.73
2023-03-04T15:17:23.439Z,98636.27
2023-03-04T15:20:04.395Z,98635.05
2023-03-04T15:22:44.915Z,98632.86
2023-03-04T15:25:46.100Z,98635.38
2023-03-04T15:28:18.557Z,98629.77
2023-03-04T15:30:46.972Z,98628.46
2023-03-04T15:33:21.350Z,98635.75
2023-03-04T15:36:32.871Z,98630.19
2023-03-04T15:39:15.449Z,98630.29
2023-03-04T15:42:35.686Z,98630.39
2023-03-04T15:45:19.835Z,98626.75
2023-03-04T15:47:48.308Z,98633.80
2023-03-04T15:50:17.932Z,98627.98
2023-03-04T15:53:40.567Z,98629.69
2023-03-04T15:56:21.365Z,98622.71
2023-03-04T15:58:57.719Z,98627.11
2023-03-04T16:01:27.769Z,98635.58
2023-03-04T16:03:57.298Z,98628.17
2023-03-04T16:07:01.083Z,98625.02
2023-03-04T16:09:33.891Z,98633.94
2023-03-04T16:12:02.479Z,98632.30
2023-03-04T16:14:31.127Z,98625.13
2023-03-04T16:16:59.908Z,98632.44
2023-03-04T16:19:29.386Z,98625.56
2023-03-04T16:22:30.426Z,98623.91
2023-03-04T16:24:59.130Z,98620.54
2023-03-04T16:27:28.886Z,98628.91
2023-03-04T16:33:37.930Z,98614.08
2023-03-04T16:36:27.295Z,98614.13
2023-03-04T16:39:32.575Z,98609.61
2023-03-04T16:42:10.082Z,98605.56
2023-03-04T16:44:39.658Z,98597.02
2023-03-04T16:47:12.024Z,98596.83
2023-03-04T16:49:40.509Z,98593.59
2023-03-04T16:52:23.359Z,98600.17
2023-03-04T16:54:52.508Z,98599.77
2023-03-04T16:57:43.703Z,98600.34
2023-03-04T17:00:14.274Z,98592.38
2023-03-04T17:02:45.864Z,98595.46
2023-03-04T17:05:19.166Z,98597.90
2023-03-04T17:07:47.751Z,98590.89
2023-03-04T17:10:23.770Z,98588.55
2023-03-04T17:12:54.286Z,98589.73
2023-03-04T17:16:44.806Z,98586.02
2023-03-04T17:19:42.350Z,98586.27
2023-03-04T17:23:19.616Z,98585.77
2023-03-04T17:25:55.659Z,98590.81
2023-03-04T17:28:26.910Z,98570.66
2023-03-04T17:30:55.449Z,98568.59
2023-03-04T17:33:24.620Z,98568.93
2023-03-04T17:35:53.353Z,98561.45
2023-03-04T17:38:22.672Z,98560.90
2023-03-04T17:40:51.782Z,98551.60
2023-03-04T17:44:06.390Z,98550.70
2023-03-04T17:46:35.404Z,98550.02
2023-03-04T17:49:04.590Z,98539.80
2023-03-04T17:52:09.132Z,98539.78
2023-03-04T17:54:38.453Z,98544.06
2023-03-04T17:57:10.023Z,98538.91
2023-03-04T17:59:42.446Z,98538.23
2023-03-04T18:02:25.253Z,98535.05
2023-03-04T18:04:53.877Z,98532.60
2023-03-04T18:07:22.381Z,98527.33
2023-03-04T18:24:35.258Z,98506.92
2023-03-04T18:27:03.547Z,98494.31
2023-03-04T18:29:34.569Z,98488.91
2023-03-04T18:32:03.119Z,98500.27
2023-03-04T18:34:33.780Z,98486.45
2023-03-04T18:37:02.249Z,98491.23
2023-03-04T18:39:32.328Z,98496.78
2023-03-04T18:42:04.338Z,98492.05
2023-03-04T18:44:32.816Z,98493.98
2023-03-04T18:47:01.615Z,98493.05
2023-03-04T18:49:29.886Z,98493.91
2023-03-04T18:51:58.671Z,98482.89
2023-03-04T18:54:27.152Z,98479.00
2023-03-04T18:57:02.424Z,98485.40
2023-03-04T18:59:37.139Z,98484.81
2023-03-04T19:02:13.006Z,98483.45
2023-03-04T19:04:51.385Z,98478.80
2023-03-04T19:07:19.874Z,98490.33
2023-03-04T19:09:48.456Z,98479.94
2023-03-04T19:12:17.052Z,98477.63
2023-03-04T19:14:45.734Z,98479.89
2023-03-04T19:17:15.612Z,98477.45
2023-03-04T19:19:44.942Z,98468.55
2023-03-04T19:22:13.526Z,98464.61
2023-03-04T19:24:42.008Z,98463.29
2023-03-04T19:27:10.593Z,98466.92
2023-03-04T19:29:41.430Z,98468.95
2023-03-04T19:32:10.756Z,98460.23
2023-03-04T19:34:43.103Z,98458.89
2023-03-04T19:37:11.788Z,98463.54
2023-03-04T19:39:43.348Z,98458.41
2023-03-04T19:42:12.446Z,98468.10
2023-03-04T19:44:43.682Z,98469.55
2023-03-04T19:47:13.088Z,98464.16
2023-03-04T19:49:49.247Z,98458.56
2023-03-04T19:52:17.452Z,98460.80
2023-03-04T19:54:45.698Z,98452.67
2023-03-04T19:57:14.486Z,98454.59
2023-03-04T19:59:42.867Z,98450.05
2023-03-04T20:02:12.371Z,98449.48
2023-03-04T20:04:43.000Z,98448.67
2023-03-04T20:07:17.631Z,98457.10
2023-03-04T20:09:47.134Z,98451.73
2023-03-04T20:12:16.334Z,98456.02
2023-03-04T20:14:44.711Z,98463.17
2023-03-04T20:17:15.446Z,98476.25
2023-03-04T20:19:44.339Z,98501.76
2023-03-04T20:22:14.556Z,98523.23
2023-03-04T20:24:43.044Z,98530.88
2023-03-04T20:27:15.177Z,98530.39
2023-03-04T20:29:46.660Z,98542.06
2023-03-04T20:32:18.979Z,98547.86
2023-03-04T20:34:49.764Z,98553.37
2023-03-04T20:37:18.757Z,98565.39
2023-03-04T20:39:47.956Z,98567.85
2023-03-04T20:42:17.362Z,98573.55
2023-03-04T20:44:46.248Z,98583.02
2023-03-04T20:47:14.524Z,98599.69
2023-03-04T20:49:43.023Z,98609.37
2023-03-04T20:52:11.692Z,98610.38
2023-03-04T20:54:40.688Z,98613.64
2023-03-04T20:57:10.921Z,98622.69
2023-03-04T20:59:41.255Z,98626.91
2023-03-04T21:02:14.528Z,98630.79
2023-03-04T21:04:44.317Z,98637.23
2023-03-04T21:07:13.029Z,98634.55
2023-03-04T21:09:45.308Z,98639.67
2023-03-04T21:12:13.982Z,98650.70
2023-03-04T21:14:46.022Z,98647.31
2023-03-04T21:17:14.945Z,98650.16
2023-03-04T21:19:43.841Z,98650.05
2023-03-04T21:22:17.132Z,98651.34
2023-03-04T21:24:45.929Z,98638.73
2023-03-04T21:27:16.762Z,98634.47
2023-03-04T21:29:45.545Z,98626.98
2023-03-04T21:32:24.252Z,98630.96
2023-03-04T21:34:54.434Z,98622.73
2023-03-04T21:37:24.060Z,98620.95
2023-03-04T21:39:55.388Z,98622.48
2023-03-04T21:42:24.662Z,98622.95
2023-03-04T21:44:59.184Z,98622.86
2023-03-04T21:47:27.769Z,98620.71
2023-03-04T21:49:57.079Z,98617.02
2023-03-04T21:52:25.767Z,98618.68
2023-03-04T21:55:15.650Z,98620.14
2023-03-04T21:57:47.209Z,98626.67
2023-03-04T22:00:16.885Z,98633.89
2023-03-04T22:02:48.370Z,98624.30
2023-03-04T22:05:19.026Z,98628.79
2023-03-04T22:07:47.594Z,98636.35
2023-03-04T22:10:18.426Z,98640.89
2023-03-04T22:12:47.828Z,98652.01
2023-03-04T22:15:23.899Z,98649.02
2023-03-04T22:17:53.945Z,98643.25
2023-03-04T22:20:33.448Z,98646.10
2023-03-04T22:23:02.184Z,98655.20
2023-03-04T22:25:35.328Z,98658.58
2023-03-04T22:28:08.670Z,98665.70
2023-03-04T22:30:39.768Z,98664.41
2023-03-04T22:33:08.662Z,98679.83
2023-03-04T22:35:41.392Z,98681.84
2023-03-04T22:38:17.506Z,98690.08
2023-03-04T22:40:46.402Z,98689.88
2023-03-04T22:43:15.709Z,98693.56
2023-03-04T22:45:44.293Z,98697.98
2023-03-04T22:48:14.711Z,98698.15
2023-03-04T22:50:43.394Z,98713.42
2023-03-04T22:53:11.667Z,98725.20
2023-03-04T22:55:41.069Z,98729.73
2023-03-04T22:58:12.933Z,98729.45
2023-03-04T23:00:46.340Z,98730.89
2023-03-04T23:03:16.033Z,98728.36
2023-03-04T23:05:44.518Z,98731.46
2023-03-04T23:08:13.712Z,98733.38
2023-03-04T23:10:42.504Z,98736.14
2023-03-04T23:13:10.984Z,98733.95
2023-03-04T23:15:40.795Z,98732.30
2023-03-04T23:18:09.689Z,98735.41
2023-03-04T23:20:42.293Z,98734.52
2023-03-04T23:23:13.103Z,98741.16
2023-03-04T23:25:41.688Z,98739.95
2023-03-04T23:28:15.097Z,98740.89
2023-03-04T23:30:44.107Z,98746.70
2023-03-04T23:33:13.792Z,98748.48
2023-03-04T23:35:43.948Z,98750.48
2023-03-04T23:38:12.710Z,98751.30
2023-03-04T23:40:41.086Z,98747.61
2023-03-04T23:43:09.557Z,98751.07
2023-03-04T23:45:38.094Z,98744.52
2023-03-04T23:48:06.741Z,98754.77
2023-03-04T23:50:36.027Z,98756.59
2023-03-04T23:53:05.745Z,98763.31
2023-03-04T23:55:36.163Z,98766.30
2023-03-04T23:58:04.642Z,98765.56
